Ayer, MA (01432)

7:12 PM EDT on September 04, 2015 (GMT -0400)
Ayer Center | | Change Station
CLOSE
Current Station
Personal Weather Station
Location: Ayer, MA
Elevation: 230 ft
Nearby Weather Stations

Elev 230 ft 42.56 °N, 71.59 °W | Updated 9 seconds ago

Clear
Clear
68.5 °F
Feels Like 68.5 °F
N
2.7
Wind Variable Wind from SE
Gusts 4.9 mph

Today
High -- | Low -- °F
--% Chance of Precip.
Yesterday
High -- | Low -- °F
Precip. -- in
6:14 AM 7:15 PM
Waning Gibbous, 55% visible
Pressure 30.22 in
Visibility 10.0 miles
Clouds Clear
Dew Point 57 °F
Humidity 67%
Rainfall 0.00 in
Snow Depth Not available.
UV 0 out of 12
Pollen 8.70 out of 12
Air Quality Not available.
Flu Activity Not available.
METAR KFIT 042252Z AUTO 09004KT 10SM CLR 22/12 A3022 RMK AO2 SLP232 T02170122
Pressure 30.22 in
Visibility 10.0 miles
Clouds Clear
Dew Point 57 °F
Humidity 67%
Rainfall 0.00 in
Snow Depth Not available.
UV 0 out of 12
Pollen 8.70 out of 12
Air Quality Not available.
Flu Activity Not available.
METAR KFIT 042252Z AUTO 09004KT 10SM CLR 22/12 A3022 RMK AO2 SLP232 T02170122

10-Day Weather Forecast

×

Almanac

Astronomy

Sep. 04, 2015 Rise Set
Actual Time
Civil Twilight
Nautical Twilight
Astronomical Twilight
Moon
Length of Visible Light
Length of Day
Tomorrow will be .
, % of the Moon is Illuminated

Today's Extremes

State Highs State Lows

Community

WunderPhotos

Upload Photos

1,852,331 photos uploaded!

WunderBlogs® & News

Nearby

Air Quality

  Air Quality AQ Index Pollutant
Not available.

Snow Depth

Station Depth Elevation

Earthquake Activity

City Distance Mag. Time & Date
Minimum magnitude displayed is 2.5.

Coastal Water Temperatures

Place Temperature

Stations

Nearby Weather Stations

Station Location Temp. Windchill Dew Point Humidity Wind Precip. Elev Updated Type